AUO weather

Auburn University Regional Airport
Auburn, Alabama, United States

Public forecast

Using degrees Fahrenheit for public forecast. Weather courtesy of forecast.io.

Current aviation weather report (METAR) for Auburn University Regional Airport

Retrieved 2019/12/10 00:56 UTC (52 minutes ago):

KAUO 100056Z AUTO 17008KT 10SM CLR 18/12 A3000 RMK AO2 SLP181 T01780117

Closest aviation forecast (TAF) to Auburn University Regional Airport

Closest forecast is Columbus Metropolitan Airport, 25.7 nm (47.7 km) ESE. Retrieved 2019-12-10 00:27 UTC (1 hour ago):

TAF KCSG 092320Z 1000/1024 20005KT P6SM SCT035 BKN250 FM100700 20006KT P6SM SCT008 OVC015 FM101000 21007KT P6SM OVC007 FM101500 23008KT P6SM OVC015 PROB30 1015/1017 -RA FM101800 26010KT P6SM -RA SCT015 OVC025